< < Back
Terminal Aerodrome Forecast


Current Version              Previous Versions:   1  2  3  4  5  6  7  8  9  

Terminal Aerodrome Forecast

391
FTUS42 KGSP 230500
TAFGSP
TAF
KGSP 230529Z 2306/2406 VRB03KT 3SM BR FEW250
      TEMPO 2306/2310 00000KT 1SM BR
     FM231000 31004KT P6SM FEW250
     FM232300 03005KT P6SM SKC=



Latest METAR

892
SAUS70 KWBC 231000 RRM
MTRGSP
METAR KGSP 230953Z 34004KT 10SM CLR 12/11 A2981 RMK AO2 SLP086
T01170106


USA.gov is the U.S. government's official web portal to all federal, state and local government web resources and services.